sensor_id;sensor_type;location;lat;lon;timestamp;pressure;altitude;pressure_sealevel;temperature;humidity
29505;BME280;16452;54.174;12.092;2023-01-29T00:01:47;102390.56;;;5.62;100.00
29505;BME280;16452;54.174;12.092;2023-01-29T00:04:13;102394.00;;;5.59;100.00
29505;BME280;16452;54.174;12.092;2023-01-29T00:06:38;102395.75;;;5.60;100.00
29505;BME280;16452;54.174;12.092;2023-01-29T00:09:04;102386.28;;;5.55;100.00
29505;BME280;16452;54.174;12.092;2023-01-29T00:11:30;102377.59;;;5.68;100.00
29505;BME280;16452;54.174;12.092;2023-01-29T00:13:57;102384.56;;;5.57;100.00
29505;BME280;16452;54.174;12.092;2023-01-29T00:16:23;102390.50;;;5.71;100.00
29505;BME280;16452;54.174;12.092;2023-01-29T00:18:49;102378.44;;;5.71;100.00
29505;BME280;16452;54.174;12.092;2023-01-29T00:21:20;102381.00;;;5.79;100.00
29505;BME280;16452;54.174;12.092;2023-01-29T00:23:47;102366.38;;;5.75;100.00
29505;BME280;16452;54.174;12.092;2023-01-29T00:26:13;102366.38;;;5.72;100.00
29505;BME280;16452;54.174;12.092;2023-01-29T00:28:39;102362.97;;;5.68;100.00
29505;BME280;16452;54.174;12.092;2023-01-29T00:31:18;102354.31;;;5.71;100.00
29505;BME280;16452;54.174;12.092;2023-01-29T00:33:44;102358.56;;;5.81;100.00
29505;BME280;16452;54.174;12.092;2023-01-29T00:36:12;102361.19;;;5.75;100.00
29505;BME280;16452;54.174;12.092;2023-01-29T00:38:38;102361.19;;;5.73;100.00
29505;BME280;16452;54.174;12.092;2023-01-29T00:41:12;102361.16;;;5.79;100.00
29505;BME280;16452;54.174;12.092;2023-01-29T00:43:58;102358.56;;;5.81;100.00
29505;BME280;16452;54.174;12.092;2023-01-29T00:46:43;102364.66;;;5.75;100.00
29505;BME280;16452;54.174;12.092;2023-01-29T00:49:09;102348.19;;;5.86;100.00
29505;BME280;16452;54.174;12.092;2023-01-29T00:51:36;102353.56;;;5.55;100.00
29505;BME280;16452;54.174;12.092;2023-01-29T00:54:02;102360.34;;;5.74;100.00
29505;BME280;16452;54.174;12.092;2023-01-29T00:56:33;102355.31;;;5.53;100.00
29505;BME280;16452;54.174;12.092;2023-01-29T00:58:59;102357.03;;;5.50;100.00
29505;BME280;16452;54.174;12.092;2023-01-29T01:01:25;102358.69;;;5.64;100.00
29505;BME280;16452;54.174;12.092;2023-01-29T01:04:11;102356.91;;;5.71;100.00
29505;BME280;16452;54.174;12.092;2023-01-29T01:06:39;102350.78;;;5.89;100.00
29505;BME280;16452;54.174;12.092;2023-01-29T01:09:06;102361.31;;;5.58;100.00
29505;BME280;16452;54.174;12.092;2023-01-29T01:11:50;102357.75;;;5.71;100.00
29505;BME280;16452;54.174;12.092;2023-01-29T01:14:18;102361.16;;;5.81;100.00
29505;BME280;16452;54.174;12.092;2023-01-29T01:16:45;102355.94;;;5.93;100.00
29505;BME280;16452;54.174;12.092;2023-01-29T01:19:13;102357.91;;;5.53;100.00
29505;BME280;16452;54.174;12.092;2023-01-29T01:21:39;102354.47;;;5.47;100.00
29505;BME280;16452;54.174;12.092;2023-01-29T01:24:05;102356.84;;;5.78;100.00
29505;BME280;16452;54.174;12.092;2023-01-29T01:26:31;102349.97;;;5.81;100.00
29505;BME280;16452;54.174;12.092;2023-01-29T01:28:58;102360.28;;;5.81;100.00
29505;BME280;16452;54.174;12.092;2023-01-29T01:31:24;102362.91;;;5.76;100.00
29505;BME280;16452;54.174;12.092;2023-01-29T01:33:50;102362.84;;;5.84;100.00
29505;BME280;16452;54.174;12.092;2023-01-29T01:36:16;102369.00;;;5.70;100.00
29505;BME280;16452;54.174;12.092;2023-01-29T01:38:43;102364.63;;;5.77;100.00
29505;BME280;16452;54.174;12.092;2023-01-29T01:41:11;102363.84;;;5.64;100.00
29505;BME280;16452;54.174;12.092;2023-01-29T01:43:58;102362.75;;;6.00;100.00
29505;BME280;16452;54.174;12.092;2023-01-29T01:46:28;102367.16;;;5.94;100.00
29505;BME280;16452;54.174;12.092;2023-01-29T01:49:00;102373.22;;;5.88;100.00
29505;BME280;16452;54.174;12.092;2023-01-29T01:51:30;102359.34;;;5.95;100.00
29505;BME280;16452;54.174;12.092;2023-01-29T01:54:05;102355.03;;;5.97;100.00
29505;BME280;16452;54.174;12.092;2023-01-29T01:56:41;102343.75;;;6.06;100.00
29505;BME280;16452;54.174;12.092;2023-01-29T01:59:15;102351.66;;;5.85;100.00
29505;BME280;16452;54.174;12.092;2023-01-29T02:01:46;102342.09;;;5.96;100.00
29505;BME280;16452;54.174;12.092;2023-01-29T02:04:19;102341.09;;;6.12;100.00
29505;BME280;16452;54.174;12.092;2023-01-29T02:07:08;102339.44;;;6.06;100.00
29505;BME280;16452;54.174;12.092;2023-01-29T02:10:09;102333.34;;;6.13;100.00
29505;BME280;16452;54.174;12.092;2023-01-29T02:12:37;102327.41;;;6.04;100.00
29505;BME280;16452;54.174;12.092;2023-01-29T02:15:04;102314.41;;;6.08;100.00
29505;BME280;16452;54.174;12.092;2023-01-29T02:17:31;102300.56;;;6.15;100.00
29505;BME280;16452;54.174;12.092;2023-01-29T02:28:53;102295.59;;;5.90;100.00
29505;BME280;16452;54.174;12.092;2023-01-29T02:31:34;102292.97;;;5.97;100.00
29505;BME280;16452;54.174;12.092;2023-01-29T02:34:18;102281.59;;;6.15;100.00
29505;BME280;16452;54.174;12.092;2023-01-29T02:36:50;102267.00;;;6.06;100.00
29505;BME280;16452;54.174;12.092;2023-01-29T02:39:59;102274.66;;;6.20;100.00
29505;BME280;16452;54.174;12.092;2023-01-29T02:42:35;102279.81;;;6.18;100.00
29505;BME280;16452;54.174;12.092;2023-01-29T02:45:21;102268.53;;;6.27;100.00
29505;BME280;16452;54.174;12.092;2023-01-29T02:47:58;102265.25;;;6.11;100.00
29505;BME280;16452;54.174;12.092;2023-01-29T02:50:36;102254.75;;;6.25;100.00
29505;BME280;16452;54.174;12.092;2023-01-29T02:58:17;102250.72;;;6.00;100.00
29505;BME280;16452;54.174;12.092;2023-01-29T03:00:47;102243.66;;;6.17;100.00
29505;BME280;16452;54.174;12.092;2023-01-29T03:03:28;102246.22;;;6.15;100.00
29505;BME280;16452;54.174;12.092;2023-01-29T03:06:19;102243.66;;;6.14;100.00
29505;BME280;16452;54.174;12.092;2023-01-29T03:08:59;102237.56;;;6.21;100.00
29505;BME280;16452;54.174;12.092;2023-01-29T03:11:41;102230.72;;;6.12;100.00
29505;BME280;16452;54.174;12.092;2023-01-29T03:14:34;102229.03;;;6.11;100.00
29505;BME280;16452;54.174;12.092;2023-01-29T03:17:28;102236.69;;;6.22;100.00
29505;BME280;16452;54.174;12.092;2023-01-29T03:19:58;102228.31;;;5.99;100.00
29505;BME280;16452;54.174;12.092;2023-01-29T03:22:26;102238.41;;;6.23;100.00
29505;BME280;16452;54.174;12.092;2023-01-29T03:24:57;102228.88;;;6.25;100.00
29505;BME280;16452;54.174;12.092;2023-01-29T03:27:58;102239.28;;;6.19;100.00
29505;BME280;16452;54.174;12.092;2023-01-29T03:30:54;102243.59;;;6.22;100.00
29505;BME280;16452;54.174;12.092;2023-01-29T03:34:00;102242.78;;;6.16;100.00
29505;BME280;16452;54.174;12.092;2023-01-29T03:36:41;102247.84;;;6.27;100.00
29505;BME280;16452;54.174;12.092;2023-01-29T03:39:10;102250.44;;;6.27;100.00
29505;BME280;16452;54.174;12.092;2023-01-29T03:48:40;102253.44;;;6.66;100.00
29505;BME280;16452;54.174;12.092;2023-01-29T03:51:52;102254.47;;;6.51;100.00
29505;BME280;16452;54.174;12.092;2023-01-29T03:57:34;102257.22;;;6.37;100.00
29505;BME280;16452;54.174;12.092;2023-01-29T04:00:16;102261.47;;;6.43;100.00
29505;BME280;16452;54.174;12.092;2023-01-29T04:03:08;102252.97;;;6.32;100.00
29505;BME280;16452;54.174;12.092;2023-01-29T04:05:58;102249.38;;;6.43;100.00
29505;BME280;16452;54.174;12.092;2023-01-29T04:08:33;102242.34;;;6.54;100.00
29505;BME280;16452;54.174;12.092;2023-01-29T04:11:06;102248.59;;;6.35;100.00
29505;BME280;16452;54.174;12.092;2023-01-29T04:13:34;102241.00;;;6.23;100.00
29505;BME280;16452;54.174;12.092;2023-01-29T04:16:01;102237.63;;;6.15;100.00
29505;BME280;16452;54.174;12.092;2023-01-29T04:18:30;102236.50;;;6.39;100.00
29505;BME280;16452;54.174;12.092;2023-01-29T04:20:56;102217.53;;;6.37;100.00
29505;BME280;16452;54.174;12.092;2023-01-29T04:23:24;102212.94;;;6.62;100.00
29505;BME280;16452;54.174;12.092;2023-01-29T04:29:45;102215.47;;;6.66;100.00
29505;BME280;16452;54.174;12.092;2023-01-29T04:40:48;102203.34;;;6.70;100.00
29505;BME280;16452;54.174;12.092;2023-01-29T04:43:27;102199.84;;;6.72;100.00
29505;BME280;16452;54.174;12.092;2023-01-29T04:46:19;102206.09;;;6.56;100.00
29505;BME280;16452;54.174;12.092;2023-01-29T04:49:18;102202.66;;;6.54;100.00
29505;BME280;16452;54.174;12.092;2023-01-29T04:52:22;102196.69;;;6.47;100.00
29505;BME280;16452;54.174;12.092;2023-01-29T04:55:09;102191.28;;;6.66;100.00
29505;BME280;16452;54.174;12.092;2023-01-29T04:57:49;102195.16;;;6.34;100.00
29505;BME280;16452;54.174;12.092;2023-01-29T05:00:32;102188.84;;;6.53;100.00
29505;BME280;16452;54.174;12.092;2023-01-29T05:03:00;102205.38;;;6.46;100.00
29505;BME280;16452;54.174;12.092;2023-01-29T05:05:27;102200.84;;;6.64;100.00
29505;BME280;16452;54.174;12.092;2023-01-29T05:07:53;102189.72;;;6.55;100.00
29505;BME280;16452;54.174;12.092;2023-01-29T05:10:20;102191.22;;;6.70;100.00
29505;BME280;16452;54.174;12.092;2023-01-29T05:12:57;102199.25;;;6.50;100.00
29505;BME280;16452;54.174;12.092;2023-01-29T05:15:36;102192.91;;;6.74;100.00
29505;BME280;16452;54.174;12.092;2023-01-29T05:18:03;102177.56;;;6.59;100.00
29505;BME280;16452;54.174;12.092;2023-01-29T05:20:37;102164.53;;;6.68;100.00
29505;BME280;16452;54.174;12.092;2023-01-29T05:23:04;102168.13;;;6.56;100.00
29505;BME280;16452;54.174;12.092;2023-01-29T05:25:33;102151.56;;;6.68;100.00
29505;BME280;16452;54.174;12.092;2023-01-29T05:27:59;102145.38;;;6.78;100.00
29505;BME280;16452;54.174;12.092;2023-01-29T05:30:30;102135.41;;;6.51;100.00
29505;BME280;16452;54.174;12.092;2023-01-29T05:32:55;102132.50;;;6.74;100.00
29505;BME280;16452;54.174;12.092;2023-01-29T05:35:21;102127.47;;;6.63;100.00
29505;BME280;16452;54.174;12.092;2023-01-29T05:37:47;102126.56;;;6.66;100.00
29505;BME280;16452;54.174;12.092;2023-01-29T05:40:12;102128.50;;;6.50;100.00
29505;BME280;16452;54.174;12.092;2023-01-29T05:42:38;102115.47;;;6.57;100.00
29505;BME280;16452;54.174;12.092;2023-01-29T05:45:05;102125.06;;;6.49;100.00
29505;BME280;16452;54.174;12.092;2023-01-29T05:47:30;102148.22;;;6.62;100.00
29505;BME280;16452;54.174;12.092;2023-01-29T05:49:56;102144.97;;;6.44;100.00
29505;BME280;16452;54.174;12.092;2023-01-29T05:52:22;102159.44;;;6.60;100.00
29505;BME280;16452;54.174;12.092;2023-01-29T05:54:48;102159.19;;;6.77;100.00
29505;BME280;16452;54.174;12.092;2023-01-29T05:57:14;102165.78;;;6.35;100.00
29505;BME280;16452;54.174;12.092;2023-01-29T05:59:39;102162.03;;;6.60;100.00
29505;BME280;16452;54.174;12.092;2023-01-29T06:02:05;102130.00;;;6.66;100.00
29505;BME280;16452;54.174;12.092;2023-01-29T06:04:31;102129.91;;;6.74;100.00
29505;BME280;16452;54.174;12.092;2023-01-29T06:06:57;102131.63;;;6.75;100.00
29505;BME280;16452;54.174;12.092;2023-01-29T06:09:22;102126.56;;;6.64;100.00
29505;BME280;16452;54.174;12.092;2023-01-29T06:11:48;102128.28;;;6.68;100.00
29505;BME280;16452;54.174;12.092;2023-01-29T06:14:14;102116.50;;;6.44;100.00
29505;BME280;16452;54.174;12.092;2023-01-29T06:16:40;102101.44;;;6.74;100.00
29505;BME280;16452;54.174;12.092;2023-01-29T06:19:05;102101.50;;;6.69;100.00
29505;BME280;16452;54.174;12.092;2023-01-29T06:21:31;102115.41;;;6.60;100.00
29505;BME280;16452;54.174;12.092;2023-01-29T06:23:57;102113.63;;;6.64;100.00
29505;BME280;16452;54.174;12.092;2023-01-29T06:26:23;102106.09;;;6.49;100.00
29505;BME280;16452;54.174;12.092;2023-01-29T06:28:49;102105.28;;;6.45;100.00
29505;BME280;16452;54.174;12.092;2023-01-29T06:31:15;102097.41;;;6.53;100.00
29505;BME280;16452;54.174;12.092;2023-01-29T06:33:41;102087.94;;;6.52;100.00
29505;BME280;16452;54.174;12.092;2023-01-29T06:36:07;102068.31;;;6.36;100.00
29505;BME280;16452;54.174;12.092;2023-01-29T06:38:33;102084.53;;;6.47;100.00
29505;BME280;16452;54.174;12.092;2023-01-29T06:40:59;102070.88;;;6.39;100.00
29505;BME280;16452;54.174;12.092;2023-01-29T06:43:24;102087.88;;;6.58;100.00
29505;BME280;16452;54.174;12.092;2023-01-29T06:45:55;102099.13;;;6.52;100.00
29505;BME280;16452;54.174;12.092;2023-01-29T06:48:22;102103.44;;;6.53;100.00
29505;BME280;16452;54.174;12.092;2023-01-29T06:50:49;102104.41;;;6.46;100.00
29505;BME280;16452;54.174;12.092;2023-01-29T06:53:16;102094.06;;;6.46;100.00
29505;BME280;16452;54.174;12.092;2023-01-29T06:55:45;102094.88;;;6.48;100.00
29505;BME280;16452;54.174;12.092;2023-01-29T06:58:15;102089.06;;;6.33;100.00
29505;BME280;16452;54.174;12.092;2023-01-29T07:00:41;102104.28;;;6.54;100.00
29505;BME280;16452;54.174;12.092;2023-01-29T07:03:08;102104.19;;;6.63;100.00
29505;BME280;16452;54.174;12.092;2023-01-29T07:05:34;102104.22;;;6.58;100.00
29505;BME280;16452;54.174;12.092;2023-01-29T07:08:00;102094.03;;;6.48;100.00
29505;BME280;16452;54.174;12.092;2023-01-29T07:10:25;102095.72;;;6.50;100.00
29505;BME280;16452;54.174;12.092;2023-01-29T07:12:51;102094.22;;;6.34;100.00
29505;BME280;16452;54.174;12.092;2023-01-29T07:15:17;102098.78;;;6.15;100.00
29505;BME280;16452;54.174;12.092;2023-01-29T07:18:04;102086.16;;;6.55;100.00
29505;BME280;16452;54.174;12.092;2023-01-29T07:20:37;102096.25;;;6.74;100.00
29505;BME280;16452;54.174;12.092;2023-01-29T07:23:03;102084.28;;;6.65;100.00
29505;BME280;16452;54.174;12.092;2023-01-29T07:25:29;102084.19;;;6.73;100.00
29505;BME280;16452;54.174;12.092;2023-01-29T07:27:55;102078.91;;;6.77;100.00
29505;BME280;16452;54.174;12.092;2023-01-29T07:30:21;102080.13;;;6.55;100.00
29505;BME280;16452;54.174;12.092;2023-01-29T07:32:47;102082.63;;;6.61;100.00
29505;BME280;16452;54.174;12.092;2023-01-29T07:35:13;102068.75;;;6.65;100.00
29505;BME280;16452;54.174;12.092;2023-01-29T07:37:38;102067.16;;;6.56;100.00
29505;BME280;16452;54.174;12.092;2023-01-29T07:40:05;102059.22;;;6.67;100.00
29505;BME280;16452;54.174;12.092;2023-01-29T07:42:37;102059.22;;;6.69;100.00
29505;BME280;16452;54.174;12.092;2023-01-29T07:45:05;102056.97;;;6.46;100.00
29505;BME280;16452;54.174;12.092;2023-01-29T07:47:31;102067.06;;;6.63;100.00
29505;BME280;16452;54.174;12.092;2023-01-29T07:49:57;102057.56;;;6.63;100.00
29505;BME280;16452;54.174;12.092;2023-01-29T07:52:23;102062.53;;;6.77;100.00
29505;BME280;16452;54.174;12.092;2023-01-29T07:54:48;102060.00;;;6.74;100.00
29505;BME280;16452;54.174;12.092;2023-01-29T07:57:14;102068.97;;;6.50;100.00
29505;BME280;16452;54.174;12.092;2023-01-29T07:59:40;102066.16;;;6.65;100.00
29505;BME280;16452;54.174;12.092;2023-01-29T08:02:07;102068.63;;;6.74;100.00
29505;BME280;16452;54.174;12.092;2023-01-29T08:04:33;102069.75;;;6.56;100.00
29505;BME280;16452;54.174;12.092;2023-01-29T08:06:59;102077.53;;;6.53;100.00
29505;BME280;16452;54.174;12.092;2023-01-29T08:09:24;102072.59;;;6.38;100.00
29505;BME280;16452;54.174;12.092;2023-01-29T08:11:50;102077.69;;;6.46;100.00
29505;BME280;16452;54.174;12.092;2023-01-29T08:14:16;102074.09;;;6.53;100.00
29505;BME280;16452;54.174;12.092;2023-01-29T08:16:41;102075.19;;;6.38;100.00
29505;BME280;16452;54.174;12.092;2023-01-29T08:19:07;102070.63;;;6.55;100.00
29505;BME280;16452;54.174;12.092;2023-01-29T08:21:33;102077.09;;;6.84;100.00
29505;BME280;16452;54.174;12.092;2023-01-29T08:23:58;102067.66;;;6.81;100.00
29505;BME280;16452;54.174;12.092;2023-01-29T08:26:24;102079.06;;;6.70;100.00
29505;BME280;16452;54.174;12.092;2023-01-29T08:28:52;102080.47;;;6.87;100.00
29505;BME280;16452;54.174;12.092;2023-01-29T08:31:18;102077.09;;;6.85;100.00
29505;BME280;16452;54.174;12.092;2023-01-29T08:33:47;102080.28;;;6.99;100.00
29505;BME280;16452;54.174;12.092;2023-01-29T08:36:13;102076.13;;;6.91;100.00
29505;BME280;16452;54.174;12.092;2023-01-29T08:38:39;102080.44;;;6.92;100.00
29505;BME280;16452;54.174;12.092;2023-01-29T08:41:06;102072.03;;;6.76;100.00
29505;BME280;16452;54.174;12.092;2023-01-29T08:43:33;102084.19;;;6.73;100.00
29505;BME280;16452;54.174;12.092;2023-01-29T08:46:03;102069.31;;;6.85;100.00
29505;BME280;16452;54.174;12.092;2023-01-29T08:48:29;102066.59;;;6.93;100.00
29505;BME280;16452;54.174;12.092;2023-01-29T08:50:59;102052.59;;;7.05;100.00
29505;BME280;16452;54.174;12.092;2023-01-29T08:53:26;102054.63;;;6.86;100.00
29505;BME280;16452;54.174;12.092;2023-01-29T08:55:52;102053.81;;;6.82;100.00
29505;BME280;16452;54.174;12.092;2023-01-29T08:58:17;102058.69;;;7.00;100.00
29505;BME280;16452;54.174;12.092;2023-01-29T09:00:43;102062.16;;;6.99;100.00
29505;BME280;16452;54.174;12.092;2023-01-29T09:03:09;102056.28;;;6.88;100.00
29505;BME280;16452;54.174;12.092;2023-01-29T09:05:36;102057.94;;;6.94;100.00
29505;BME280;16452;54.174;12.092;2023-01-29T09:08:03;102049.44;;;6.86;100.00
29505;BME280;16452;54.174;12.092;2023-01-29T09:10:29;102055.44;;;6.88;100.00
29505;BME280;16452;54.174;12.092;2023-01-29T09:12:54;102049.09;;;7.06;100.00
29505;BME280;16452;54.174;12.092;2023-01-29T09:15:20;102035.41;;;6.99;100.00
29505;BME280;16452;54.174;12.092;2023-01-29T09:17:46;102047.63;;;6.92;100.00
29505;BME280;16452;54.174;12.092;2023-01-29T09:20:14;102042.84;;;7.17;100.00
29505;BME280;16452;54.174;12.092;2023-01-29T09:22:40;102031.59;;;7.20;100.00
29505;BME280;16452;54.174;12.092;2023-01-29T09:25:07;102021.88;;;7.32;100.00
29505;BME280;16452;54.174;12.092;2023-01-29T09:27:33;102022.31;;;7.07;100.00
29505;BME280;16452;54.174;12.092;2023-01-29T09:29:59;102018.84;;;7.09;100.00
29505;BME280;16452;54.174;12.092;2023-01-29T09:32:24;102006.88;;;7.00;100.00
29505;BME280;16452;54.174;12.092;2023-01-29T09:34:50;102000.88;;;6.98;100.00
29505;BME280;16452;54.174;12.092;2023-01-29T09:37:16;101986.78;;;7.13;100.00
29505;BME280;16452;54.174;12.092;2023-01-29T09:39:43;101996.19;;;7.19;100.00
29505;BME280;16452;54.174;12.092;2023-01-29T09:42:39;101990.13;;;7.20;100.00
29505;BME280;16452;54.174;12.092;2023-01-29T09:45:13;101984.84;;;7.26;100.00
29505;BME280;16452;54.174;12.092;2023-01-29T09:47:39;101991.19;;;7.10;100.00
29505;BME280;16452;54.174;12.092;2023-01-29T09:50:17;101988.41;;;7.19;100.00
29505;BME280;16452;54.174;12.092;2023-01-29T09:56:00;101994.09;;;6.93;100.00
29505;BME280;16452;54.174;12.092;2023-01-29T09:58:31;101994.88;;;6.95;100.00
29505;BME280;16452;54.174;12.092;2023-01-29T10:04:25;101966.06;;;7.13;100.00
29505;BME280;16452;54.174;12.092;2023-01-29T10:19:33;101931.63;;;7.08;100.00
29505;BME280;16452;54.174;12.092;2023-01-29T10:22:38;101948.22;;;6.98;100.00
29505;BME280;16452;54.174;12.092;2023-01-29T10:25:18;101941.72;;;7.22;100.00
29505;BME280;16452;54.174;12.092;2023-01-29T10:27:56;101946.22;;;7.12;100.00
29505;BME280;16452;54.174;12.092;2023-01-29T10:30:39;101951.28;;;7.18;100.00
29505;BME280;16452;54.174;12.092;2023-01-29T10:33:28;101944.94;;;6.88;100.00
29505;BME280;16452;54.174;12.092;2023-01-29T10:36:03;101933.34;;;7.08;100.00
29505;BME280;16452;54.174;12.092;2023-01-29T10:38:46;101926.31;;;7.16;100.00
29505;BME280;16452;54.174;12.092;2023-01-29T10:41:51;101917.47;;;7.24;100.00
29505;BME280;16452;54.174;12.092;2023-01-29T10:50:21;101909.25;;;7.46;100.00
29505;BME280;16452;54.174;12.092;2023-01-29T10:56:07;101896.53;;;7.35;100.00
29505;BME280;16452;54.174;12.092;2023-01-29T11:01:19;101890.84;;;7.58;100.00
29505;BME280;16452;54.174;12.092;2023-01-29T11:03:45;101883.13;;;7.56;100.00
29505;BME280;16452;54.174;12.092;2023-01-29T11:06:33;101872.81;;;7.53;100.00
29505;BME280;16452;54.174;12.092;2023-01-29T11:12:13;101875.63;;;7.81;100.00
29505;BME280;16452;54.174;12.092;2023-01-29T11:15:06;101871.38;;;7.78;100.00
29505;BME280;16452;54.174;12.092;2023-01-29T11:18:01;101888.56;;;7.84;100.00
29505;BME280;16452;54.174;12.092;2023-01-29T11:20:29;101879.88;;;7.85;100.00
29505;BME280;16452;54.174;12.092;2023-01-29T11:22:55;101876.69;;;7.74;100.00
29505;BME280;16452;54.174;12.092;2023-01-29T11:25:21;101882.19;;;7.59;100.00
29505;BME280;16452;54.174;12.092;2023-01-29T11:27:56;101873.38;;;7.67;100.00
29505;BME280;16452;54.174;12.092;2023-01-29T11:30:32;101874.88;;;7.77;100.00
29505;BME280;16452;54.174;12.092;2023-01-29T11:33:17;101871.16;;;7.51;100.00
29505;BME280;16452;54.174;12.092;2023-01-29T11:35:45;101874.28;;;7.65;100.00
29505;BME280;16452;54.174;12.092;2023-01-29T11:38:25;101872.22;;;7.40;100.00
29505;BME280;16452;54.174;12.092;2023-01-29T11:40:52;101875.63;;;7.42;100.00
29505;BME280;16452;54.174;12.092;2023-01-29T11:45:54;101861.91;;;7.39;100.00
29505;BME280;16452;54.174;12.092;2023-01-29T11:48:39;101848.81;;;7.45;100.00
29505;BME280;16452;54.174;12.092;2023-01-29T11:51:06;101849.00;;;7.34;100.00
29505;BME280;16452;54.174;12.092;2023-01-29T11:53:37;101862.69;;;7.42;100.00
29505;BME280;16452;54.174;12.092;2023-01-29T11:56:32;101840.47;;;7.31;100.00
29505;BME280;16452;54.174;12.092;2023-01-29T11:59:00;101830.19;;;7.26;100.00
29505;BME280;16452;54.174;12.092;2023-01-29T12:01:38;101835.75;;;7.50;100.00
29505;BME280;16452;54.174;12.092;2023-01-29T12:04:23;101834.50;;;7.27;100.00
29505;BME280;16452;54.174;12.092;2023-01-29T12:06:51;101831.13;;;7.22;100.00
29505;BME280;16452;54.174;12.092;2023-01-29T12:09:21;101827.84;;;7.16;100.00
29505;BME280;16452;54.174;12.092;2023-01-29T12:11:48;101820.75;;;7.22;100.00
29505;BME280;16452;54.174;12.092;2023-01-29T12:14:29;101821.69;;;7.21;100.00
29505;BME280;16452;54.174;12.092;2023-01-29T12:17:12;101818.94;;;6.86;100.00
29505;BME280;16452;54.174;12.092;2023-01-29T12:19:52;101813.16;;;7.16;100.00
29505;BME280;16452;54.174;12.092;2023-01-29T12:22:55;101811.47;;;7.52;100.00
29505;BME280;16452;54.174;12.092;2023-01-29T12:25:54;101807.81;;;7.22;100.00
29505;BME280;16452;54.174;12.092;2023-01-29T12:31:25;101809.97;;;7.04;100.00
29505;BME280;16452;54.174;12.092;2023-01-29T12:34:03;101789.41;;;7.34;100.00
29505;BME280;16452;54.174;12.092;2023-01-29T12:36:54;101799.41;;;7.11;100.00
29505;BME280;16452;54.174;12.092;2023-01-29T12:39:21;101793.13;;;7.23;100.00
29505;BME280;16452;54.174;12.092;2023-01-29T12:44:43;101788.91;;;7.19;100.00
29505;BME280;16452;54.174;12.092;2023-01-29T12:47:39;101777.50;;;7.26;100.00
29505;BME280;16452;54.174;12.092;2023-01-29T12:50:30;101765.47;;;7.23;100.00
29505;BME280;16452;54.174;12.092;2023-01-29T12:53:26;101762.06;;;7.21;100.00
29505;BME280;16452;54.174;12.092;2023-01-29T12:56:09;101767.00;;;7.32;100.00
29505;BME280;16452;54.174;12.092;2023-01-29T12:58:45;101769.50;;;7.36;100.00
29505;BME280;16452;54.174;12.092;2023-01-29T13:01:19;101758.19;;;7.00;100.00
29505;BME280;16452;54.174;12.092;2023-01-29T13:03:57;101754.97;;;7.29;100.00
29505;BME280;16452;54.174;12.092;2023-01-29T13:06:44;101751.00;;;7.13;100.00
29505;BME280;16452;54.174;12.092;2023-01-29T13:09:18;101745.13;;;7.07;100.00
29505;BME280;16452;54.174;12.092;2023-01-29T13:14:59;101719.97;;;7.49;100.00
29505;BME280;16452;54.174;12.092;2023-01-29T13:17:42;101717.38;;;7.49;100.00
29505;BME280;16452;54.174;12.092;2023-01-29T13:20:32;101728.00;;;7.38;100.00
29505;BME280;16452;54.174;12.092;2023-01-29T13:25:42;101708.72;;;7.11;100.00
29505;BME280;16452;54.174;12.092;2023-01-29T13:28:24;101703.97;;;7.31;100.00
29505;BME280;16452;54.174;12.092;2023-01-29T13:34:28;101693.66;;;7.64;100.00
29505;BME280;16452;54.174;12.092;2023-01-29T13:37:02;101682.47;;;7.28;100.00
29505;BME280;16452;54.174;12.092;2023-01-29T13:39:39;101684.19;;;7.63;100.00
29505;BME280;16452;54.174;12.092;2023-01-29T13:42:23;101673.88;;;7.60;100.00
29505;BME280;16452;54.174;12.092;2023-01-29T13:44:53;101681.69;;;7.58;100.00
29505;BME280;16452;54.174;12.092;2023-01-29T13:47:27;101669.25;;;7.37;100.00
29505;BME280;16452;54.174;12.092;2023-01-29T13:50:23;101677.94;;;7.34;100.00
29505;BME280;16452;54.174;12.092;2023-01-29T13:53:00;101671.81;;;7.38;100.00
29505;BME280;16452;54.174;12.092;2023-01-29T13:55:37;101667.25;;;7.48;100.00
29505;BME280;16452;54.174;12.092;2023-01-29T13:58:12;101668.66;;;7.27;100.00
29505;BME280;16452;54.174;12.092;2023-01-29T14:05:56;101655.00;;;7.19;100.00
29505;BME280;16452;54.174;12.092;2023-01-29T14:13:47;101629.53;;;7.36;100.00
29505;BME280;16452;54.174;12.092;2023-01-29T14:18:59;101627.22;;;7.26;100.00
29505;BME280;16452;54.174;12.092;2023-01-29T14:21:32;101615.91;;;7.28;100.00
29505;BME280;16452;54.174;12.092;2023-01-29T14:24:18;101616.41;;;7.42;100.00
29505;BME280;16452;54.174;12.092;2023-01-29T14:26:48;101605.03;;;7.14;100.00
29505;BME280;16452;54.174;12.092;2023-01-29T14:29:27;101613.22;;;6.97;100.00
29505;BME280;16452;54.174;12.092;2023-01-29T14:34:48;101614.69;;;7.08;100.00
29505;BME280;16452;54.174;12.092;2023-01-29T14:39:52;101600.56;;;7.21;100.00
29505;BME280;16452;54.174;12.092;2023-01-29T14:42:29;101586.50;;;7.29;100.00
29505;BME280;16452;54.174;12.092;2023-01-29T14:45:27;101601.34;;;7.24;100.00
29505;BME280;16452;54.174;12.092;2023-01-29T14:47:55;101589.56;;;7.11;100.00
29505;BME280;16452;54.174;12.092;2023-01-29T14:53:18;101583.34;;;7.18;100.00
29505;BME280;16452;54.174;12.092;2023-01-29T15:01:29;101580.16;;;7.07;100.00
29505;BME280;16452;54.174;12.092;2023-01-29T15:04:02;101584.72;;;6.97;100.00
29505;BME280;16452;54.174;12.092;2023-01-29T15:06:44;101574.38;;;6.97;100.00